YPGV/GOV METAR and TAF weather

Enter ICAO airport designator
Station Type Date Time Source
YPGV METAR 2021/04/14 19:00 UTC NOAA

YPGV 141900Z AUTO 13004KT 9999 // NCD 25/22 Q1010


Station Type Date Time Source
YPGV Decoded METAR 2021/04/14 19:00 UTC NOAA

Station name not available
Apr 14, 2021 - 03:00 PM EDT / 2021.04.14 1900 UTC
Wind: from the SE (130 degrees) at 5 MPH (4 KT):0
Visibility: greater than 7 mile(s):0
Temperature: 77 F (25 C)
Dew Point: 71 F (22 C)
Relative Humidity: 83%
Pressure (altimeter): 29.83 in. Hg (1010 hPa)
ob: YPGV 141900Z AUTO 13004KT 9999 // NCD 25/22 Q1010
cycle: 19

Station Type Date Time Source
YPGV TAF 2021/04/14 20:00 UTC NOAA

TAF
AMD YPGV 141907Z 1420/1508 10012KT 9999 SCT025 INTER 1420/1504 2000 SHRA SCT010

Example: see airport list